Terminal Aerodrome Forecast
Issued by NWS

Home | Current Version | Previous Version | Text Only | Print | Product List | Glossary On
Versions: 1 2 3 4 5 6 7 8 9 10 11 12 13 14
000
FTAK31 PAJN 272326
TAFAKT
TAF
PAKT 272326Z 2800/2824 14010KT P6SM SCT010 OVC030
     FM280200 13012KT P6SM -RA BKN035 OVC050
     FM280400 14012KT 5SM -RA BR BKN030 OVC040 WS020/20025KT
     FM281100 14012G20KT 4SM RA BR BKN010 OVC030 WS020/18030KT
     FM281500 14014G25KT 3SM RA BR BKN010 OVC025 WS020/16040KT
     FM282100 14016G30KT 3SM RA BR BKN010 OVC025 WS020/16045KT
      AMD LTD TO CLD VIS AND WIND 2806/2815=

USA.gov is the U.S. government's official web portal to all federal, state and local government web resources and services.